DUZEAR1 KABQ-KLAM
Flight info
| Callsign | DUZEAR1 |
|---|---|
| Flight time | 0h 26m |
| Altitude | 13000 |
| Route | KABQ/21 N0272F130 DOOKK3 DOOKK DCT TEAJA DCT DULKE DCT ROYSO DCT VECUT DCT KLAM/27 |
| Aircraft | PC12/L-SDE2FGIRWY/SB1 |
Departure
| Time | 2026-04-22 22:21 |
|---|---|
| Airport | Albuquerque International Sunport (KABQ) |
Arrival
| Time | 2026-04-22 22:48 |
|---|---|
| Airport | Los Alamos Airport (KLAM) |
| Time | Latitude | Longitude | Altitude | Speed | Heading |
|---|---|---|---|---|---|
| 2026-04-22 22:07 | 35.03588 | -106.61886 | 5317 ft | 0 kts | 41° |
| 2026-04-22 22:16 | 35.03580 | -106.61878 | 5317 ft | 8 kts | 169° |
| 2026-04-22 22:16 | 35.03438 | -106.61849 | 5317 ft | 25 kts | 116° |
| 2026-04-22 22:16 | 35.03565 | -106.61654 | 5318 ft | 39 kts | 45° |
| 2026-04-22 22:17 | 35.03733 | -106.61452 | 5318 ft | 30 kts | 43° |
| 2026-04-22 22:17 | 35.03963 | -106.61384 | 5317 ft | 39 kts | 1° |
| 2026-04-22 22:17 | 35.04199 | -106.61382 | 5311 ft | 24 kts | 5° |
| 2026-04-22 22:17 | 35.04244 | -106.61150 | 5311 ft | 38 kts | 90° |
| 2026-04-22 22:18 | 35.04242 | -106.60767 | 5318 ft | 49 kts | 89° |
| 2026-04-22 22:18 | 35.04255 | -106.60450 | 5318 ft | 36 kts | 77° |
| 2026-04-22 22:18 | 35.04258 | -106.60089 | 5318 ft | 49 kts | 90° |
| 2026-04-22 22:18 | 35.04256 | -106.59715 | 5317 ft | 39 kts | 88° |
| 2026-04-22 22:19 | 35.04253 | -106.59329 | 5317 ft | 52 kts | 90° |
| 2026-04-22 22:19 | 35.04251 | -106.58970 | 5318 ft | 31 kts | 90° |
| 2026-04-22 22:19 | 35.04262 | -106.58666 | 5318 ft | 43 kts | 90° |
| 2026-04-22 22:19 | 35.04260 | -106.58244 | 5314 ft | 56 kts | 90° |
| 2026-04-22 22:20 | 35.04257 | -106.57843 | 5317 ft | 40 kts | 92° |
| 2026-04-22 22:20 | 35.04288 | -106.57580 | 5317 ft | 25 kts | 12° |
| 2026-04-22 22:20 | 35.04408 | -106.57731 | 5316 ft | 35 kts | 270° |
| 2026-04-22 22:20 | 35.04411 | -106.58252 | 5318 ft | 90 kts | 270° |
| 2026-04-22 22:21 | 35.04414 | -106.59205 | 5360 ft | 136 kts | 270° |
| 2026-04-22 22:21 | 35.04422 | -106.60509 | 5505 ft | 166 kts | 270° |
| 2026-04-22 22:21 | 35.04436 | -106.62061 | 5586 ft | 197 kts | 270° |
| 2026-04-22 22:21 | 35.04420 | -106.63555 | 6890 ft | 158 kts | 266° |
| 2026-04-22 22:22 | 35.04319 | -106.64852 | 7297 ft | 148 kts | 254° |
| 2026-04-22 22:22 | 35.03673 | -106.65951 | 7585 ft | 166 kts | 219° |
| 2026-04-22 22:22 | 35.02708 | -106.66669 | 8474 ft | 162 kts | 214° |
| 2026-04-22 22:22 | 35.01723 | -106.67390 | 8934 ft | 165 kts | 215° |
| 2026-04-22 22:23 | 35.00721 | -106.68114 | 8961 ft | 180 kts | 214° |
| 2026-04-22 22:23 | 34.99544 | -106.68958 | 9006 ft | 208 kts | 213° |
| 2026-04-22 22:23 | 34.98248 | -106.69887 | 9011 ft | 222 kts | 214° |
| 2026-04-22 22:23 | 34.96899 | -106.70846 | 9017 ft | 226 kts | 212° |
| 2026-04-22 22:24 | 34.95428 | -106.71556 | 9016 ft | 230 kts | 198° |
| 2026-04-22 22:24 | 34.93825 | -106.71765 | 9016 ft | 235 kts | 183° |
| 2026-04-22 22:24 | 34.92209 | -106.71436 | 9144 ft | 234 kts | 166° |
| 2026-04-22 22:24 | 34.90796 | -106.70642 | 9920 ft | 214 kts | 153° |
| 2026-04-22 22:25 | 34.89697 | -106.69573 | 10932 ft | 193 kts | 140° |
| 2026-04-22 22:25 | 34.88818 | -106.68443 | 11945 ft | 179 kts | 141° |
| 2026-04-22 22:25 | 34.87934 | -106.67356 | 12603 ft | 185 kts | 140° |
| 2026-04-22 22:25 | 34.87037 | -106.66219 | 12954 ft | 186 kts | 140° |
| 2026-04-22 22:26 | 34.86051 | -106.64971 | 13017 ft | 223 kts | 139° |
| 2026-04-22 22:26 | 34.84914 | -106.63523 | 13018 ft | 247 kts | 138° |
| 2026-04-22 22:26 | 34.83700 | -106.61964 | 13015 ft | 258 kts | 138° |
| 2026-04-22 22:26 | 34.82628 | -106.60175 | 13010 ft | 267 kts | 121° |
| 2026-04-22 22:27 | 34.82024 | -106.58016 | 12999 ft | 273 kts | 102° |
| 2026-04-22 22:27 | 34.81971 | -106.55733 | 12998 ft | 276 kts | 84° |
| 2026-04-22 22:27 | 34.82501 | -106.53460 | 12999 ft | 277 kts | 64° |
| 2026-04-22 22:27 | 34.83559 | -106.51519 | 12997 ft | 275 kts | 45° |
| 2026-04-22 22:28 | 34.85028 | -106.50070 | 12997 ft | 271 kts | 27° |
| 2026-04-22 22:28 | 34.86689 | -106.49098 | 13002 ft | 268 kts | 21° |
| 2026-04-22 22:28 | 34.88411 | -106.48136 | 13001 ft | 269 kts | 21° |
| 2026-04-22 22:28 | 34.90086 | -106.47192 | 13003 ft | 270 kts | 21° |
| 2026-04-22 22:29 | 34.91236 | -106.46544 | 13004 ft | 269 kts | 21° |
| 2026-04-22 22:29 | 34.93481 | -106.45278 | 13001 ft | 267 kts | 20° |
| 2026-04-22 22:29 | 34.95170 | -106.44336 | 13006 ft | 269 kts | 20° |
| 2026-04-22 22:29 | 34.96894 | -106.43377 | 13009 ft | 275 kts | 20° |
| 2026-04-22 22:30 | 34.98639 | -106.42397 | 13009 ft | 276 kts | 20° |
| 2026-04-22 22:30 | 35.00388 | -106.41415 | 13003 ft | 278 kts | 21° |
| 2026-04-22 22:30 | 35.01573 | -106.40750 | 13004 ft | 277 kts | 21° |
| 2026-04-22 22:30 | 35.03323 | -106.39771 | 13008 ft | 277 kts | 20° |
| 2026-04-22 22:31 | 35.05079 | -106.38783 | 13005 ft | 278 kts | 21° |
| 2026-04-22 22:31 | 35.06840 | -106.37796 | 13001 ft | 279 kts | 20° |
| 2026-04-22 22:31 | 35.08607 | -106.36806 | 12969 ft | 279 kts | 21° |
| 2026-04-22 22:31 | 35.10364 | -106.35816 | 12968 ft | 277 kts | 21° |
| 2026-04-22 22:32 | 35.12114 | -106.34829 | 12971 ft | 277 kts | 21° |
| 2026-04-22 22:32 | 35.13867 | -106.33844 | 12970 ft | 277 kts | 20° |
| 2026-04-22 22:32 | 35.15618 | -106.32860 | 12968 ft | 277 kts | 20° |
| 2026-04-22 22:32 | 35.17371 | -106.31872 | 12967 ft | 276 kts | 21° |
| 2026-04-22 22:33 | 35.19121 | -106.30885 | 12966 ft | 277 kts | 21° |
| 2026-04-22 22:33 | 35.20864 | -106.29906 | 12966 ft | 278 kts | 20° |
| 2026-04-22 22:33 | 35.22626 | -106.28912 | 12967 ft | 279 kts | 21° |
| 2026-04-22 22:33 | 35.24382 | -106.27921 | 12967 ft | 277 kts | 20° |
| 2026-04-22 22:34 | 35.26151 | -106.27013 | 12966 ft | 276 kts | 19° |
| 2026-04-22 22:34 | 35.27891 | -106.26096 | 12966 ft | 276 kts | 19° |
| 2026-04-22 22:34 | 35.29652 | -106.25161 | 12967 ft | 277 kts | 19° |
| 2026-04-22 22:34 | 35.31423 | -106.24234 | 12967 ft | 276 kts | 18° |
| 2026-04-22 22:35 | 35.33186 | -106.23313 | 12966 ft | 276 kts | 19° |
| 2026-04-22 22:35 | 35.34946 | -106.22391 | 12970 ft | 276 kts | 19° |
| 2026-04-22 22:35 | 35.36711 | -106.21464 | 12973 ft | 276 kts | 19° |
| 2026-04-22 22:35 | 35.38478 | -106.20539 | 12972 ft | 277 kts | 19° |
| 2026-04-22 22:36 | 35.40242 | -106.19614 | 12970 ft | 277 kts | 19° |
| 2026-04-22 22:36 | 35.42016 | -106.18678 | 12970 ft | 276 kts | 19° |
| 2026-04-22 22:36 | 35.43782 | -106.17750 | 12969 ft | 276 kts | 18° |
| 2026-04-22 22:36 | 35.45551 | -106.16822 | 12967 ft | 277 kts | 19° |
| 2026-04-22 22:37 | 35.47319 | -106.15892 | 12972 ft | 277 kts | 19° |
| 2026-04-22 22:37 | 35.49094 | -106.14958 | 12973 ft | 277 kts | 19° |
| 2026-04-22 22:37 | 35.50867 | -106.14025 | 12970 ft | 278 kts | 19° |
| 2026-04-22 22:37 | 35.52643 | -106.13089 | 12966 ft | 277 kts | 19° |
| 2026-04-22 22:38 | 35.54410 | -106.12159 | 12967 ft | 276 kts | 18° |
| 2026-04-22 22:38 | 35.56181 | -106.11226 | 12969 ft | 277 kts | 19° |
| 2026-04-22 22:38 | 35.57946 | -106.10293 | 12968 ft | 277 kts | 18° |
| 2026-04-22 22:38 | 35.59719 | -106.09359 | 12965 ft | 277 kts | 19° |
| 2026-04-22 22:39 | 35.61487 | -106.08421 | 12966 ft | 276 kts | 18° |
| 2026-04-22 22:39 | 35.63253 | -106.07491 | 12968 ft | 276 kts | 17° |
| 2026-04-22 22:39 | 35.65053 | -106.06734 | 12966 ft | 274 kts | 13° |
| 2026-04-22 22:39 | 35.66868 | -106.06015 | 12953 ft | 275 kts | 13° |
| 2026-04-22 22:40 | 35.68712 | -106.05273 | 12694 ft | 282 kts | 13° |
| 2026-04-22 22:40 | 35.70593 | -106.04550 | 12334 ft | 283 kts | 8° |
| 2026-04-22 22:40 | 35.72501 | -106.04323 | 11964 ft | 270 kts | 353° |
| 2026-04-22 22:40 | 35.74196 | -106.04588 | 11617 ft | 221 kts | 340° |
| 2026-04-22 22:41 | 35.75518 | -106.05081 | 11383 ft | 181 kts | 334° |
| 2026-04-22 22:41 | 35.76729 | -106.05565 | 11145 ft | 182 kts | 334° |
| 2026-04-22 22:41 | 35.77906 | -106.06027 | 10969 ft | 169 kts | 334° |
| 2026-04-22 22:41 | 35.79024 | -106.06468 | 10763 ft | 165 kts | 334° |
| 2026-04-22 22:42 | 35.79937 | -106.06953 | 10548 ft | 129 kts | 319° |
| 2026-04-22 22:42 | 35.80582 | -106.07620 | 10405 ft | 119 kts | 305° |
| 2026-04-22 22:42 | 35.81117 | -106.08364 | 10242 ft | 113 kts | 304° |
| 2026-04-22 22:42 | 35.81617 | -106.09033 | 10090 ft | 104 kts | 303° |
| 2026-04-22 22:43 | 35.82152 | -106.09778 | 9971 ft | 127 kts | 305° |
| 2026-04-22 22:43 | 35.82770 | -106.10617 | 9792 ft | 137 kts | 306° |
| 2026-04-22 22:43 | 35.83412 | -106.11485 | 9596 ft | 137 kts | 305° |
| 2026-04-22 22:43 | 35.84047 | -106.12348 | 9402 ft | 136 kts | 306° |
| 2026-04-22 22:44 | 35.84680 | -106.13206 | 9209 ft | 134 kts | 305° |
| 2026-04-22 22:44 | 35.85287 | -106.14033 | 9026 ft | 127 kts | 306° |
| 2026-04-22 22:44 | 35.85776 | -106.14874 | 8853 ft | 114 kts | 289° |
| 2026-04-22 22:44 | 35.85980 | -106.15784 | 8702 ft | 111 kts | 276° |
| 2026-04-22 22:45 | 35.86141 | -106.16705 | 8562 ft | 111 kts | 278° |
| 2026-04-22 22:45 | 35.86308 | -106.17630 | 8414 ft | 111 kts | 278° |
| 2026-04-22 22:45 | 35.86475 | -106.18568 | 8257 ft | 113 kts | 277° |
| 2026-04-22 22:45 | 35.86646 | -106.19478 | 8112 ft | 105 kts | 277° |
| 2026-04-22 22:46 | 35.86797 | -106.20352 | 7975 ft | 106 kts | 278° |
| 2026-04-22 22:46 | 35.86965 | -106.21245 | 7822 ft | 105 kts | 278° |
| 2026-04-22 22:46 | 35.87115 | -106.22097 | 7671 ft | 98 kts | 276° |
| 2026-04-22 22:46 | 35.87257 | -106.22904 | 7514 ft | 97 kts | 276° |
| 2026-04-22 22:47 | 35.87404 | -106.23722 | 7354 ft | 101 kts | 277° |
| 2026-04-22 22:47 | 35.87556 | -106.24578 | 7328 ft | 102 kts | 279° |
| 2026-04-22 22:47 | 35.87704 | -106.25410 | 7186 ft | 98 kts | 279° |
| 2026-04-22 22:47 | 35.87852 | -106.26219 | 7109 ft | 89 kts | 282° |
| 2026-04-22 22:48 | 35.87949 | -106.26753 | 7126 ft | 22 kts | 282° |
| 2026-04-22 22:48 | 35.87990 | -106.26981 | 7133 ft | 36 kts | 284° |
| 2026-04-22 22:48 | 35.88038 | -106.27242 | 7145 ft | 17 kts | 282° |
| 2026-04-22 22:48 | 35.88069 | -106.27422 | 7157 ft | 14 kts | 285° |
| 2026-04-22 22:49 | 35.88146 | -106.27445 | 7159 ft | 14 kts | 347° |
| 2026-04-22 22:49 | 35.88162 | -106.27480 | 7163 ft | 2 kts | 278° |
| 2026-04-22 22:49 | 35.88162 | -106.27484 | 7163 ft | 0 kts | 278° |
| 2026-04-22 22:56 | 35.88162 | -106.27479 | 7163 ft | 0 kts | 282° |
| 2026-04-22 22:56 | 35.88163 | -106.27483 | 7163 ft | 0 kts | 282° |